createdAt,value
2018-04-25T00:00:27.601Z,100666.38
2018-04-25T00:02:54.240Z,100667.46
2018-04-25T00:05:20.904Z,100658.23
2018-04-25T00:07:47.549Z,100659.80
2018-04-25T00:10:14.239Z,100648.46
2018-04-25T00:12:41.117Z,100638.79
2018-04-25T00:15:07.908Z,100640.97
2018-04-25T00:17:35.398Z,100637.09
2018-04-25T00:20:02.018Z,100631.38
2018-04-25T00:22:28.679Z,100623.85
2018-04-25T00:24:55.453Z,100618.77
2018-04-25T00:27:22.066Z,100622.88
2018-04-25T00:29:48.949Z,100621.27
2018-04-25T00:32:15.600Z,100625.02
2018-04-25T00:34:43.048Z,100625.27
2018-04-25T00:37:09.680Z,100622.94
2018-04-25T00:39:36.339Z,100615.41
2018-04-25T00:42:03.861Z,100602.37
2018-04-25T00:44:30.574Z,100597.39
2018-04-25T00:46:57.211Z,100588.17
2018-04-25T00:49:23.836Z,100593.03
2018-04-25T00:51:50.510Z,100575.44
2018-04-25T00:54:17.173Z,100580.58
2018-04-25T00:56:43.894Z,100579.45
2018-04-25T00:59:10.521Z,100576.78
2018-04-25T01:01:37.336Z,100575.69
2018-04-25T01:04:03.953Z,100578.06
2018-04-25T01:06:31.328Z,100574.16
2018-04-25T01:08:58.048Z,100577.70
2018-04-25T01:11:25.576Z,100576.02
2018-04-25T01:13:52.235Z,100580.47
2018-04-25T01:16:18.857Z,100576.92
2018-04-25T01:18:45.662Z,100564.20
2018-04-25T01:21:12.356Z,100580.95
2018-04-25T01:23:39.095Z,100583.09
2018-04-25T01:26:05.714Z,100580.19
2018-04-25T01:28:47.964Z,100567.57
2018-04-25T01:31:18.176Z,100581.27
2018-04-25T01:36:59.068Z,100574.68
2018-04-25T01:39:40.452Z,100577.50
2018-04-25T01:42:19.884Z,100574.30
2018-04-25T01:44:56.340Z,100575.84
2018-04-25T01:47:28.356Z,100586.20
2018-04-25T01:53:17.477Z,100580.65
2018-04-25T01:56:02.539Z,100577.78
2018-04-25T01:58:47.701Z,100572.00
2018-04-25T02:01:18.972Z,100577.12
2018-04-25T02:03:55.589Z,100575.22
2018-04-25T02:06:22.295Z,100574.61
2018-04-25T02:08:49.828Z,100577.12
2018-04-25T02:11:16.451Z,100574.28
2018-04-25T02:13:43.117Z,100576.72
2018-04-25T02:16:09.818Z,100575.01
2018-04-25T02:18:36.492Z,100573.28
2018-04-25T02:21:03.200Z,100571.80
2018-04-25T02:23:29.869Z,100570.33
2018-04-25T02:25:56.581Z,100567.20
2018-04-25T02:28:23.218Z,100563.47
2018-04-25T02:30:50.009Z,100557.92
2018-04-25T02:33:16.641Z,100563.23
2018-04-25T02:35:43.349Z,100555.91
2018-04-25T02:38:09.981Z,100552.08
2018-04-25T02:40:36.688Z,100548.55
2018-04-25T02:43:03.357Z,100551.34
2018-04-25T02:45:30.940Z,100548.23
2018-04-25T02:47:57.571Z,100543.42
2018-04-25T02:50:25.134Z,100538.44
2018-04-25T02:52:51.812Z,100542.95
2018-04-25T02:55:18.436Z,100537.69
2018-04-25T02:57:45.274Z,100543.56
2018-04-25T03:00:11.988Z,100545.02
2018-04-25T03:02:38.820Z,100543.89
2018-04-25T03:05:05.484Z,100551.56
2018-04-25T03:07:32.256Z,100552.89
2018-04-25T03:09:58.916Z,100553.64
2018-04-25T03:12:26.337Z,100554.91
2018-04-25T03:14:53.060Z,100553.77
2018-04-25T03:17:19.864Z,100548.59
2018-04-25T03:19:47.325Z,100547.03
2018-04-25T03:22:14.864Z,100553.61
2018-04-25T03:24:41.510Z,100550.34
2018-04-25T03:27:08.856Z,100545.83
2018-04-25T03:29:35.555Z,100546.76
2018-04-25T03:32:02.198Z,100546.11
2018-04-25T03:34:29.026Z,100547.72
2018-04-25T03:36:55.679Z,100557.70
2018-04-25T03:39:22.332Z,100552.71
2018-04-25T03:41:49.772Z,100553.33
2018-04-25T03:44:16.458Z,100553.59
2018-04-25T03:46:43.104Z,100545.99
2018-04-25T03:49:10.648Z,100551.36
2018-04-25T03:51:37.296Z,100551.52
2018-04-25T03:54:04.881Z,100551.84
2018-04-25T03:56:32.276Z,100549.52
2018-04-25T03:58:58.952Z,100549.61
2018-04-25T04:01:26.433Z,100554.44
2018-04-25T04:03:53.912Z,100555.20
2018-04-25T04:06:20.807Z,100559.86
2018-04-25T04:08:47.445Z,100560.08
2018-04-25T04:11:15.074Z,100552.06
2018-04-25T04:13:41.900Z,100561.64
2018-04-25T04:16:08.585Z,100559.67
2018-04-25T04:18:36.730Z,100555.56
2018-04-25T04:21:03.373Z,100555.78
2018-04-25T04:23:30.011Z,100555.45
2018-04-25T04:25:56.688Z,100551.91
2018-04-25T04:28:23.301Z,100555.51
2018-04-25T04:30:50.857Z,100560.88
2018-04-25T04:33:18.234Z,100549.48
2018-04-25T04:35:44.881Z,100549.16
2018-04-25T04:38:12.571Z,100560.23
2018-04-25T04:40:39.228Z,100551.95
2018-04-25T04:43:05.951Z,100552.14
2018-04-25T04:45:32.770Z,100561.88
2018-04-25T04:48:00.198Z,100549.59
2018-04-25T04:50:27.010Z,100555.48
2018-04-25T04:52:53.910Z,100548.94
2018-04-25T04:55:20.738Z,100556.75
2018-04-25T04:57:47.512Z,100550.36
2018-04-25T05:00:14.983Z,100553.63
2018-04-25T05:02:42.560Z,100560.34
2018-04-25T05:05:09.191Z,100558.31
2018-04-25T05:07:35.869Z,100549.67
2018-04-25T05:10:02.489Z,100564.48
2018-04-25T05:12:29.139Z,100581.50
2018-04-25T05:14:55.835Z,100576.59
2018-04-25T05:17:22.553Z,100583.42
2018-04-25T05:19:49.930Z,100590.95
2018-04-25T05:22:17.325Z,100588.62
2018-04-25T05:24:44.778Z,100596.35
2018-04-25T05:27:12.228Z,100597.59
2018-04-25T05:29:39.016Z,100598.87
2018-04-25T05:32:06.397Z,100607.97
2018-04-25T05:34:33.112Z,100608.08
2018-04-25T05:37:00.658Z,100604.69
2018-04-25T05:39:27.309Z,100614.87
2018-04-25T05:41:54.773Z,100615.56
2018-04-25T05:44:22.309Z,100619.37
2018-04-25T05:46:48.964Z,100625.11
2018-04-25T05:49:16.353Z,100623.47
2018-04-25T05:51:43.088Z,100613.84
2018-04-25T05:54:09.819Z,100621.97
2018-04-25T05:56:37.424Z,100629.92
2018-04-25T05:59:04.219Z,100635.52
2018-04-25T06:01:31.798Z,100640.25
2018-04-25T06:03:58.476Z,100640.19
2018-04-25T06:06:25.106Z,100645.48
2018-04-25T06:08:54.993Z,100663.58
2018-04-25T06:11:21.732Z,100664.44
2018-04-25T06:13:48.356Z,100668.80
2018-04-25T06:16:15.033Z,100663.58
2018-04-25T06:18:41.671Z,100665.80
2018-04-25T06:21:09.105Z,100684.13
2018-04-25T06:23:35.887Z,100674.34
2018-04-25T06:26:02.532Z,100676.94
2018-04-25T06:28:29.289Z,100678.28
2018-04-25T06:30:56.685Z,100673.42
2018-04-25T06:33:23.342Z,100678.96
2018-04-25T06:35:50.044Z,100680.23
2018-04-25T06:38:16.670Z,100686.38
2018-04-25T06:40:44.131Z,100689.02
2018-04-25T06:43:11.541Z,100684.77
2018-04-25T06:45:38.229Z,100677.16
2018-04-25T06:48:05.880Z,100678.91
2018-04-25T06:50:33.619Z,100676.59
2018-04-25T06:53:00.348Z,100680.08
2018-04-25T06:55:27.164Z,100677.31
2018-04-25T06:57:53.886Z,100694.84
2018-04-25T07:00:20.519Z,100697.13
2018-04-25T07:02:47.168Z,100701.25
2018-04-25T07:05:13.941Z,100704.78
2018-04-25T07:07:40.592Z,100711.25
2018-04-25T07:10:07.458Z,100709.70
2018-04-25T07:12:34.123Z,100707.94
2018-04-25T07:15:00.950Z,100705.65
2018-04-25T07:17:28.575Z,100709.53
2018-04-25T07:19:55.705Z,100715.11
2018-04-25T07:22:22.395Z,100715.83
2018-04-25T07:24:49.883Z,100722.19
2018-04-25T07:27:16.553Z,100718.67
2018-04-25T07:29:43.440Z,100718.94
2018-04-25T07:32:11.006Z,100714.87
2018-04-25T07:34:38.439Z,100718.50
2018-04-25T07:37:05.856Z,100713.31
2018-04-25T07:39:32.640Z,100722.57
2018-04-25T07:42:00.732Z,100723.67
2018-04-25T07:44:27.415Z,100722.39
2018-04-25T07:46:54.379Z,100723.65
2018-04-25T07:49:21.151Z,100718.76
2018-04-25T07:51:47.827Z,100725.84
2018-04-25T07:54:15.261Z,100723.95
2018-04-25T07:56:42.032Z,100722.01
2018-04-25T07:59:09.604Z,100719.90
2018-04-25T08:01:37.160Z,100727.28
2018-04-25T08:04:04.588Z,100730.64
2018-04-25T08:06:31.375Z,100733.19
2018-04-25T08:08:58.101Z,100743.95
2018-04-25T08:11:24.797Z,100751.34
2018-04-25T08:14:09.637Z,100757.76
2018-04-25T08:16:54.779Z,100752.85
2018-04-25T08:19:39.927Z,100760.45
2018-04-25T08:22:06.859Z,100772.70
2018-04-25T08:24:33.508Z,100784.22
2018-04-25T08:27:00.222Z,100787.15
2018-04-25T08:29:27.156Z,100784.03
2018-04-25T08:31:53.809Z,100801.82
2018-04-25T08:34:20.555Z,100811.81
2018-04-25T08:36:47.343Z,100821.28
2018-04-25T08:39:14.900Z,100834.98
2018-04-25T08:41:42.322Z,100842.16
2018-04-25T08:44:09.768Z,100842.48
2018-04-25T08:46:36.672Z,100852.83
2018-04-25T08:49:03.371Z,100852.59
2018-04-25T08:51:31.500Z,100860.93
2018-04-25T08:53:58.504Z,100851.53
2018-04-25T08:56:25.947Z,100855.27
2018-04-25T08:58:52.596Z,100849.80
2018-04-25T09:01:19.244Z,100855.67
2018-04-25T09:03:46.675Z,100846.09
2018-04-25T09:06:13.357Z,100845.36
2018-04-25T09:08:40.005Z,100847.60
2018-04-25T09:11:06.646Z,100839.53
2018-04-25T09:13:33.469Z,100859.42
2018-04-25T09:16:00.954Z,100858.03
2018-04-25T09:18:27.586Z,100864.02
2018-04-25T09:20:54.367Z,100868.44
2018-04-25T09:23:21.040Z,100860.13
2018-04-25T09:25:47.698Z,100868.28
2018-04-25T09:28:15.070Z,100874.45
2018-04-25T09:30:41.813Z,100873.89
2018-04-25T09:33:08.660Z,100867.28
2018-04-25T09:35:35.318Z,100874.67
2018-04-25T09:38:02.019Z,100877.91
2018-04-25T09:40:28.660Z,100887.00
2018-04-25T09:42:55.547Z,100890.33
2018-04-25T09:45:22.222Z,100897.48
2018-04-25T09:47:49.620Z,100898.54
2018-04-25T09:50:16.274Z,100901.05
2018-04-25T09:52:43.078Z,100903.02
2018-04-25T09:55:09.773Z,100898.40
2018-04-25T09:57:37.240Z,100894.06
2018-04-25T10:00:04.041Z,100890.55
2018-04-25T10:02:32.854Z,100894.95
2018-04-25T10:04:59.738Z,100904.81
2018-04-25T10:07:27.296Z,100901.45
2018-04-25T10:09:54.852Z,100907.78
2018-04-25T10:12:22.417Z,100916.28
2018-04-25T10:14:49.835Z,100905.08
2018-04-25T10:17:16.576Z,100909.06
2018-04-25T10:19:43.233Z,100914.03
2018-04-25T10:22:10.151Z,100913.03
2018-04-25T10:24:36.837Z,100908.73
2018-04-25T10:27:04.213Z,100923.02
2018-04-25T10:29:31.013Z,100921.50
2018-04-25T10:31:57.723Z,100923.66
2018-04-25T10:34:25.175Z,100937.22
2018-04-25T10:36:51.962Z,100925.87
2018-04-25T10:39:19.351Z,100925.86
2018-04-25T10:41:46.323Z,100921.84
2018-04-25T10:44:12.991Z,100917.86
2018-04-25T10:46:39.715Z,100922.84
2018-04-25T10:49:06.428Z,100930.65
2018-04-25T10:51:33.080Z,100936.26
2018-04-25T10:53:59.761Z,100932.93
2018-04-25T10:56:27.133Z,100925.47
2018-04-25T10:58:54.636Z,100931.72
2018-04-25T11:01:21.468Z,100935.83
2018-04-25T11:03:48.146Z,100938.91
2018-04-25T11:06:14.936Z,100929.83
2018-04-25T11:08:41.552Z,100935.84
2018-04-25T11:11:08.984Z,100933.47
2018-04-25T11:13:35.652Z,100928.53
2018-04-25T11:16:02.416Z,100930.70
2018-04-25T11:18:29.924Z,100933.01
2018-04-25T11:20:56.615Z,100927.14
2018-04-25T11:23:23.373Z,100932.82
2018-04-25T11:25:50.040Z,100932.24
2018-04-25T11:28:17.543Z,100938.64
2018-04-25T11:30:46.269Z,100937.22
2018-04-25T11:33:13.092Z,100937.84
2018-04-25T11:35:39.942Z,100940.12
2018-04-25T11:38:07.098Z,100950.14
2018-04-25T11:40:33.875Z,100929.54
2018-04-25T11:43:01.525Z,100928.25
2018-04-25T11:45:28.921Z,100935.77
2018-04-25T11:47:56.086Z,100939.60
2018-04-25T11:50:22.967Z,100943.42
2018-04-25T11:52:49.696Z,100938.06
2018-04-25T11:55:16.384Z,100950.10
2018-04-25T11:57:43.958Z,100940.05
2018-04-25T12:00:10.639Z,100944.47
2018-04-25T12:02:37.328Z,100938.19
2018-04-25T12:05:04.093Z,100944.20
2018-04-25T12:07:30.819Z,100934.12
2018-04-25T12:09:57.489Z,100955.52
2018-04-25T12:12:24.290Z,100941.23
2018-04-25T12:14:50.969Z,100953.62
2018-04-25T12:17:18.434Z,100949.78
2018-04-25T12:19:45.159Z,100957.67
2018-04-25T12:22:11.982Z,100966.23
2018-04-25T12:24:38.833Z,100973.37
2018-04-25T12:27:05.513Z,100980.70
2018-04-25T12:29:32.366Z,100975.84
2018-04-25T12:31:59.023Z,100983.63
2018-04-25T12:34:25.747Z,100992.26
2018-04-25T12:36:52.475Z,100993.87
2018-04-25T12:39:19.228Z,100978.61
2018-04-25T12:41:46.026Z,100984.30
2018-04-25T12:44:12.733Z,100976.66
2018-04-25T12:46:40.232Z,100983.83
2018-04-25T12:49:06.938Z,100976.28
2018-04-25T12:51:33.588Z,100984.64
2018-04-25T12:54:00.400Z,100986.03
2018-04-25T12:56:27.076Z,100986.65
2018-04-25T12:58:53.852Z,100978.47
2018-04-25T13:01:20.485Z,100977.90
2018-04-25T13:29:50.165Z,100986.06
2018-04-25T13:32:16.980Z,100978.64
2018-04-25T13:34:43.628Z,100975.98
2018-04-25T13:37:10.297Z,100972.59
2018-04-25T13:39:36.921Z,100963.02
2018-04-25T13:42:06.435Z,100961.80
2018-04-25T13:44:33.227Z,100955.80
2018-04-25T13:47:00.618Z,100952.50
2018-04-25T13:49:27.420Z,100954.27
2018-04-25T13:51:54.891Z,100953.45
2018-04-25T13:54:21.538Z,100964.55
2018-04-25T13:56:48.242Z,100964.01
2018-04-25T13:59:17.063Z,100959.37
2018-04-25T14:01:44.014Z,100959.41
2018-04-25T14:04:11.128Z,100965.59
2018-04-25T14:06:38.531Z,100964.40
2018-04-25T14:09:06.036Z,100960.30
2018-04-25T14:11:32.719Z,100953.27
2018-04-25T14:13:59.446Z,100959.37
2018-04-25T14:16:26.183Z,100965.42
2018-04-25T14:18:53.678Z,100967.11
2018-04-25T14:21:20.360Z,100965.56
2018-04-25T14:23:47.773Z,100968.11
2018-04-25T14:26:14.473Z,100970.00
2018-04-25T14:28:41.172Z,100966.58
2018-04-25T14:31:10.897Z,100966.70
2018-04-25T14:33:37.544Z,100970.41
2018-04-25T14:36:05.437Z,100978.28
2018-04-25T14:38:34.712Z,100978.75
2018-04-25T14:41:01.415Z,100974.42
2018-04-25T14:43:34.851Z,100979.00
2018-04-25T14:46:04.194Z,100975.98
2018-04-25T14:48:30.962Z,100978.39
2018-04-25T14:50:57.734Z,100972.42
2018-04-25T14:53:24.404Z,100969.58
2018-04-25T14:55:53.185Z,100971.28
2018-04-25T14:58:20.497Z,100966.75
2018-04-25T15:00:47.234Z,100970.47
2018-04-25T15:03:13.956Z,100965.34
2018-04-25T15:05:52.849Z,100969.14
2018-04-25T15:08:19.645Z,100969.55
2018-04-25T15:10:46.329Z,100962.47
2018-04-25T15:13:13.140Z,100962.45
2018-04-25T15:15:39.799Z,100957.20
2018-04-25T15:18:06.719Z,100953.02
2018-04-25T15:20:36.021Z,100949.20
2018-04-25T15:23:03.353Z,100949.70
2018-04-25T15:25:30.052Z,100941.00
2018-04-25T15:27:58.672Z,100950.88
2018-04-25T15:30:25.555Z,100948.03
2018-04-25T15:32:52.727Z,100943.81
2018-04-25T15:35:20.293Z,100939.45
2018-04-25T15:37:48.548Z,100943.78
2018-04-25T15:40:16.223Z,100949.52
2018-04-25T15:42:43.627Z,100955.89
2018-04-25T15:45:10.362Z,100957.53
2018-04-25T15:47:37.049Z,100956.95
2018-04-25T15:50:04.772Z,100956.66
2018-04-25T15:52:31.540Z,100960.39
2018-04-25T15:54:59.463Z,100957.03
2018-04-25T15:57:26.420Z,100963.88
2018-04-25T15:59:53.178Z,100970.73
2018-04-25T16:02:19.869Z,100955.16
2018-04-25T16:04:46.582Z,100952.23
2018-04-25T16:07:16.803Z,100952.37
2018-04-25T16:09:43.525Z,100955.84
2018-04-25T16:12:10.351Z,100949.10
2018-04-25T16:14:37.040Z,100955.87
2018-04-25T16:17:03.777Z,100946.95
2018-04-25T16:19:30.444Z,100945.12
2018-04-25T16:21:57.099Z,100946.36
2018-04-25T16:24:23.928Z,100946.23
2018-04-25T16:26:50.647Z,100947.58
2018-04-25T16:29:18.032Z,100951.25
2018-04-25T16:31:44.701Z,100944.97
2018-04-25T16:34:11.460Z,100945.62
2018-04-25T16:36:39.641Z,100950.42
2018-04-25T16:39:07.325Z,100953.77
2018-04-25T16:41:38.381Z,100961.06
2018-04-25T16:44:05.112Z,100950.45
2018-04-25T16:46:31.824Z,100954.91
2018-04-25T16:49:02.783Z,100955.61
2018-04-25T16:51:31.399Z,100948.92
2018-04-25T16:53:58.094Z,100941.40
2018-04-25T16:56:25.601Z,100932.93
2018-04-25T16:58:56.637Z,100936.20
2018-04-25T17:01:23.349Z,100940.62
2018-04-25T17:03:50.784Z,100937.56
2018-04-25T17:06:17.605Z,100939.30
2018-04-25T17:08:44.330Z,100947.20
2018-04-25T17:11:11.167Z,100943.42
2018-04-25T17:13:37.903Z,100937.55
2018-04-25T17:16:04.562Z,100940.62
2018-04-25T17:18:31.290Z,100938.35
2018-04-25T17:20:58.191Z,100943.78
2018-04-25T17:23:25.615Z,100942.08
2018-04-25T17:25:55.068Z,100938.19
2018-04-25T17:28:21.945Z,100941.03
2018-04-25T17:30:48.766Z,100937.71
2018-04-25T17:33:15.613Z,100943.25
2018-04-25T17:35:42.507Z,100942.16
2018-04-25T17:38:09.370Z,100937.89
2018-04-25T17:40:37.295Z,100940.03
2018-04-25T17:43:04.825Z,100934.86
2018-04-25T17:45:32.837Z,100937.33
2018-04-25T17:47:59.553Z,100939.13
2018-04-25T17:50:26.213Z,100941.03
2018-04-25T17:52:56.052Z,100943.22
2018-04-25T17:55:23.940Z,100939.63
2018-04-25T17:57:50.585Z,100934.64
2018-04-25T18:00:17.250Z,100932.09
2018-04-25T18:02:43.909Z,100935.45
2018-04-25T18:05:10.765Z,100926.75
2018-04-25T18:07:37.465Z,100933.31
2018-04-25T18:10:04.272Z,100931.23
2018-04-25T18:12:31.669Z,100940.58
2018-04-25T18:14:58.431Z,100936.91
2018-04-25T18:17:25.106Z,100947.25
2018-04-25T18:19:52.636Z,100947.42
2018-04-25T18:22:19.414Z,100950.52
2018-04-25T18:24:46.021Z,100957.59
2018-04-25T18:27:13.469Z,100953.39
2018-04-25T18:29:40.134Z,100947.70
2018-04-25T18:32:07.602Z,100951.24
2018-04-25T18:34:35.104Z,100954.23
2018-04-25T18:37:01.859Z,100955.18
2018-04-25T18:39:28.507Z,100958.41
2018-04-25T18:41:55.246Z,100967.27
2018-04-25T18:44:21.904Z,100963.77
2018-04-25T18:46:48.714Z,100964.34
2018-04-25T18:49:15.371Z,100962.21
2018-04-25T18:51:43.221Z,100964.88
2018-04-25T18:54:09.933Z,100971.25
2018-04-25T18:56:36.672Z,100971.06
2018-04-25T18:59:03.472Z,100974.73
2018-04-25T19:01:30.144Z,100976.12
2018-04-25T19:03:56.896Z,100976.47
2018-04-25T19:06:23.556Z,100976.83
2018-04-25T19:08:50.212Z,100976.03
2018-04-25T19:11:16.907Z,100983.95
2018-04-25T19:13:43.713Z,100989.98
2018-04-25T19:16:10.426Z,100996.02
2018-04-25T19:18:37.179Z,100995.94
2018-04-25T19:21:04.215Z,101004.11
2018-04-25T19:23:31.016Z,101007.31
2018-04-25T19:25:57.723Z,101005.78
2018-04-25T19:28:24.453Z,101010.30
2018-04-25T19:30:51.225Z,101008.84
2018-04-25T19:33:17.925Z,101006.52
2018-04-25T19:35:44.748Z,101013.03
2018-04-25T19:38:11.834Z,101023.11
2018-04-25T19:40:38.540Z,101015.00
2018-04-25T19:43:05.293Z,101021.52
2018-04-25T19:45:32.012Z,101026.34
2018-04-25T19:47:58.776Z,101028.39
2018-04-25T19:50:25.426Z,101030.53
2018-04-25T19:52:52.452Z,101027.45
2018-04-25T19:55:19.170Z,101037.88
2018-04-25T19:57:45.859Z,101031.34
2018-04-25T20:00:12.568Z,101031.66
2018-04-25T20:02:39.275Z,101032.41
2018-04-25T20:05:05.919Z,101030.53
2018-04-25T20:07:32.781Z,101026.20
2018-04-25T20:09:59.599Z,101037.89
2018-04-25T20:12:26.294Z,101044.97
2018-04-25T20:14:53.060Z,101040.25
2018-04-25T20:17:20.485Z,101047.89
2018-04-25T20:19:47.187Z,101044.58
2018-04-25T20:22:13.822Z,101046.95
2018-04-25T20:24:40.495Z,101048.77
2018-04-25T20:27:07.175Z,101053.75
2018-04-25T20:29:34.601Z,101057.91
2018-04-25T20:32:01.370Z,101056.22
2018-04-25T20:34:28.096Z,101062.23
2018-04-25T20:36:54.787Z,101068.91
2018-04-25T20:39:21.847Z,101061.61
2018-04-25T20:41:48.619Z,101060.70
2018-04-25T20:44:15.314Z,101059.43
2018-04-25T20:46:42.788Z,101064.09
2018-04-25T20:49:09.574Z,101066.55
2018-04-25T20:51:36.324Z,101070.76
2018-04-25T20:54:03.172Z,101079.27
2018-04-25T20:56:29.821Z,101071.81
2018-04-25T20:58:57.332Z,101078.12
2018-04-25T21:01:24.013Z,101066.06
2018-04-25T21:03:51.418Z,101068.66
2018-04-25T21:06:18.096Z,101061.86
2018-04-25T21:08:44.863Z,101070.22
2018-04-25T21:11:11.693Z,101066.17
2018-04-25T21:13:38.246Z,101064.23
2018-04-25T21:16:04.934Z,101070.13
2018-04-25T21:18:31.571Z,101070.80
2018-04-25T21:20:58.278Z,101068.39
2018-04-25T21:23:24.928Z,101063.34
2018-04-25T21:25:51.547Z,101065.02
2018-04-25T21:28:19.043Z,101066.85
2018-04-25T21:30:45.961Z,101070.30
2018-04-25T21:33:12.603Z,101074.57
2018-04-25T21:35:39.384Z,101070.69
2018-04-25T21:38:06.039Z,101076.38
2018-04-25T21:40:33.522Z,101076.09
2018-04-25T21:43:00.370Z,101075.72
2018-04-25T21:45:27.048Z,101082.89
2018-04-25T21:47:53.713Z,101073.55
2018-04-25T21:50:21.134Z,101081.25
2018-04-25T21:52:47.814Z,101080.73
2018-04-25T21:55:15.209Z,101081.84
2018-04-25T21:57:41.864Z,101072.06
2018-04-25T22:00:08.494Z,101083.04
2018-04-25T22:02:35.161Z,101076.25
2018-04-25T22:05:02.046Z,101075.39
2018-04-25T22:07:28.719Z,101076.30
2018-04-25T22:09:56.277Z,101079.62
2018-04-25T22:12:23.103Z,101083.02
2018-04-25T22:14:49.915Z,101075.95
2018-04-25T22:17:17.396Z,101082.16
2018-04-25T22:19:44.085Z,101083.61
2018-04-25T22:22:10.862Z,101084.55
2018-04-25T22:24:38.245Z,101085.45
2018-04-25T22:27:04.922Z,101080.83
2018-04-25T22:29:31.560Z,101083.07
2018-04-25T22:31:58.237Z,101089.52
2018-04-25T22:34:25.065Z,101090.05
2018-04-25T22:36:51.725Z,101099.39
2018-04-25T22:39:18.513Z,101089.59
2018-04-25T22:41:45.921Z,101089.52
2018-04-25T22:44:12.588Z,101091.47
2018-04-25T22:46:39.275Z,101092.86
2018-04-25T22:49:06.190Z,101090.02
2018-04-25T22:51:32.806Z,101093.53
2018-04-25T22:54:00.206Z,101096.42
2018-04-25T22:56:26.874Z,101091.77
2018-04-25T22:58:54.425Z,101092.22
2018-04-25T23:01:21.092Z,101094.14
2018-04-25T23:03:47.752Z,101085.15
2018-04-25T23:06:14.459Z,101085.77
2018-04-25T23:08:41.984Z,101084.93
2018-04-25T23:11:08.701Z,101080.38
2018-04-25T23:13:35.352Z,101084.45
2018-04-25T23:16:01.998Z,101081.00
2018-04-25T23:18:28.629Z,101083.56
2018-04-25T23:20:55.275Z,101091.01
2018-04-25T23:23:21.952Z,101088.45
2018-04-25T23:25:48.646Z,101086.95
2018-04-25T23:28:15.365Z,101095.02
2018-04-25T23:30:42.001Z,101095.52
2018-04-25T23:33:08.713Z,101097.98
2018-04-25T23:35:36.097Z,101093.70
2018-04-25T23:38:02.768Z,101092.59
2018-04-25T23:40:29.385Z,101091.56
2018-04-25T23:42:56.037Z,101098.42
2018-04-25T23:45:22.750Z,101094.75
2018-04-25T23:47:49.554Z,101101.66
2018-04-25T23:50:17.092Z,101099.50
2018-04-25T23:52:44.480Z,101097.28
2018-04-25T23:55:11.883Z,101097.29
2018-04-25T23:57:38.516Z,101094.27
